Time;durP1;ratioP1;P1;durP2;ratioP2;P2;SDS_P1;SDS_P2;PMS_P1;PMS_P2;Temp;Humidity;BMP_temperature;BMP_pressure;BME280_temperature;BME280_humidity;BME280_pressure;Samples;Min_cycle;Max_cycle;Signal;HPM_P1;HPM_P2
2024/04/02 00:01:09;;;;;;;3.15;1.27;;;;;;;11.50;100.00;99055.66;5027600;28;20390;-69
2024/04/02 00:03:36;;;;;;;1.30;1.17;;;;;;;11.43;100.00;99055.75;5032759;28;20036;-68
2024/04/02 00:06:02;;;;;;;2.40;1.30;;;;;;;11.70;100.00;99053.19;5031243;28;20025;-68
2024/04/02 00:08:31;;;;;;;2.00;1.50;;;;;;;11.60;100.00;99054.03;5060600;28;20029;-68
2024/04/02 00:11:05;;;;;;;4.05;1.83;;;;;;;11.68;99.93;99060.91;5046924;28;20391;-68
2024/04/02 00:13:31;;;;;;;2.67;1.67;;;;;;;11.54;100.00;99058.31;5027729;28;20064;-68
2024/04/02 00:15:57;;;;;;;2.83;1.05;;;;;;;11.33;100.00;99064.69;5027431;28;20659;-69
2024/04/02 00:18:24;;;;;;;2.28;1.40;;;;;;;11.44;100.00;99070.00;5035508;28;20399;-68
2024/04/02 00:20:50;;;;;;;2.95;1.52;;;;;;;11.49;100.00;99066.84;5029910;28;20022;-68
2024/04/02 00:23:15;;;;;;;3.38;1.60;;;;;;;11.32;100.00;99065.09;5037550;28;20033;-68
2024/04/02 00:25:43;;;;;;;3.50;1.73;;;;;;;11.27;100.00;99070.88;5034310;28;20079;-69
2024/04/02 00:28:13;;;;;;;1.98;1.30;;;;;;;11.25;100.00;99065.91;5040017;28;20563;-69
2024/04/02 00:30:39;;;;;;;5.75;1.42;;;;;;;11.15;100.00;99060.63;5030169;28;20074;-69
2024/04/02 00:33:05;;;;;;;3.10;1.25;;;;;;;11.38;100.00;99072.31;5052930;28;20045;-70
2024/04/02 00:35:31;;;;;;;2.40;1.35;;;;;;;11.42;100.00;99075.75;5015799;28;20029;-68
2024/04/02 00:37:56;;;;;;;2.45;1.55;;;;;;;11.34;100.00;99068.16;5032696;28;20051;-69
2024/04/02 00:40:22;;;;;;;3.35;1.10;;;;;;;11.29;100.00;99072.03;5039272;28;20087;-68
2024/04/02 00:42:48;;;;;;;6.97;1.75;;;;;;;11.34;100.00;99066.19;5036314;28;20036;-68
2024/04/02 00:45:15;;;;;;;8.95;2.00;;;;;;;11.52;99.98;99082.22;5033450;28;20033;-70
2024/04/02 00:47:42;;;;;;;1.38;0.90;;;;;;;11.31;100.00;99074.31;5015143;28;20045;-68
2024/04/02 00:50:10;;;;;;;2.03;1.30;;;;;;;11.42;100.00;99083.09;5015357;28;20491;-68
2024/04/02 00:52:36;;;;;;;2.30;1.20;;;;;;;11.30;99.74;99076.28;5015255;28;20033;-69
2024/04/02 00:55:02;;;;;;;2.08;1.48;;;;;;;11.21;100.00;99085.94;5032979;28;20088;-68
2024/04/02 00:57:29;;;;;;;2.30;1.27;;;;;;;11.01;100.00;99083.03;5041064;28;20044;-68
2024/04/02 00:59:54;;;;;;;1.73;1.05;;;;;;;10.90;100.00;99091.19;5034808;28;20111;-68
2024/04/02 01:02:20;;;;;;;4.90;1.02;;;;;;;11.12;100.00;99075.63;5065692;28;20466;-69
2024/04/02 01:04:47;;;;;;;1.63;1.13;;;;;;;10.93;100.00;99080.78;5033111;28;20033;-69
2024/04/02 01:07:14;;;;;;;2.78;1.17;;;;;;;10.96;100.00;99077.28;5035432;28;20041;-69
2024/04/02 01:09:42;;;;;;;8.25;1.85;;;;;;;11.23;100.00;99083.63;5034352;28;20029;-68
2024/04/02 01:12:10;;;;;;;2.08;1.52;;;;;;;11.06;100.00;99079.91;5047399;28;20043;-68
2024/04/02 01:14:40;;;;;;;1.52;1.13;;;;;;;10.98;100.00;99081.13;5030392;28;20029;-69
2024/04/02 01:17:08;;;;;;;8.00;1.35;;;;;;;11.07;100.00;99078.75;5033658;28;20306;-69
2024/04/02 01:19:33;;;;;;;2.70;1.20;;;;;;;11.19;100.00;99091.75;5047053;28;20033;-69
2024/04/02 01:21:59;;;;;;;3.60;1.88;;;;;;;11.00;100.00;99078.81;5016763;28;20120;-68
2024/04/02 01:24:26;;;;;;;3.60;1.30;;;;;;;10.96;100.00;99086.13;5049070;28;20041;-68
2024/04/02 01:26:52;;;;;;;1.98;1.10;;;;;;;11.06;99.56;99089.91;5015117;28;20064;-68
2024/04/02 01:29:18;;;;;;;2.55;1.50;;;;;;;11.03;100.00;99083.41;5026652;28;20503;-68
2024/04/02 01:31:43;;;;;;;3.38;1.80;;;;;;;11.31;99.57;99087.78;5050801;28;20029;-69
2024/04/02 01:34:10;;;;;;;1.88;1.20;;;;;;;11.37;98.48;99091.59;5028253;28;20025;-69
2024/04/02 01:36:35;;;;;;;3.13;1.67;;;;;;;11.25;98.91;99087.47;5053175;28;20076;-68
2024/04/02 01:39:01;;;;;;;1.40;0.90;;;;;;;11.19;99.65;99096.38;5012957;28;20049;-68
2024/04/02 01:41:27;;;;;;;1.50;1.27;;;;;;;11.17;98.76;99096.00;5030028;28;20036;-69
2024/04/02 01:43:52;;;;;;;1.35;1.20;;;;;;;11.24;99.51;99093.25;5028829;28;20625;-70
2024/04/02 01:46:18;;;;;;;1.67;1.30;;;;;;;11.17;98.48;99096.75;5043599;28;20029;-68
2024/04/02 01:48:44;;;;;;;2.10;1.20;;;;;;;11.34;98.22;99097.78;5032901;28;20034;-68
2024/04/02 01:51:09;;;;;;;2.28;1.48;;;;;;;11.41;98.12;99101.19;5030691;28;20093;-68
2024/04/02 01:53:35;;;;;;;4.93;1.45;;;;;;;11.44;97.54;99103.09;5034983;28;20410;-68
2024/04/02 01:56:05;;;;;;;1.92;1.30;;;;;;;11.69;96.52;99113.69;5018270;28;20121;-69
2024/04/02 01:58:31;;;;;;;4.28;1.08;;;;;;;11.60;96.03;99102.56;5048923;28;20033;-68
2024/04/02 02:00:56;;;;;;;2.75;1.27;;;;;;;11.51;97.14;99110.34;5039132;28;20048;-70
2024/04/02 02:03:22;;;;;;;2.78;1.23;;;;;;;11.53;96.28;99106.09;5025697;28;20083;-68
2024/04/02 02:05:48;;;;;;;2.65;1.17;;;;;;;11.59;96.25;99115.25;5029148;28;20030;-68
2024/04/02 02:08:14;;;;;;;1.00;0.93;;;;;;;11.62;95.88;99111.00;5031545;28;20048;-68
2024/04/02 02:10:40;;;;;;;2.22;1.25;;;;;;;11.53;94.76;99116.88;5036942;28;20037;-68
2024/04/02 02:13:08;;;;;;;3.17;1.48;;;;;;;11.60;94.82;99122.19;5030133;28;20021;-71
2024/04/02 02:15:34;;;;;;;1.30;0.82;;;;;;;11.25;95.98;99113.63;5031853;28;20116;-68
2024/04/02 02:18:00;;;;;;;1.90;1.02;;;;;;;11.36;96.17;99122.41;5027023;28;20026;-71
2024/04/02 02:20:25;;;;;;;4.57;1.10;;;;;;;11.39;96.46;99114.31;5048427;28;20033;-68
2024/04/02 02:22:51;;;;;;;3.53;1.50;;;;;;;11.07;96.91;99118.41;5030561;28;20035;-69
2024/04/02 02:25:17;;;;;;;2.35;1.38;;;;;;;11.14;96.27;99115.66;5046439;28;20125;-69
2024/04/02 02:27:42;;;;;;;2.08;1.33;;;;;;;11.19;96.56;99104.47;5066007;28;20040;-69
2024/04/02 02:30:08;;;;;;;1.30;1.00;;;;;;;11.13;96.92;99114.88;5030756;28;20402;-69
2024/04/02 02:32:36;;;;;;;1.05;0.88;;;;;;;11.17;96.39;99109.47;5027688;28;20033;-69
2024/04/02 02:35:03;;;;;;;2.65;1.55;;;;;;;11.26;95.87;99117.88;5060646;28;20033;-69
2024/04/02 02:37:29;;;;;;;3.85;1.50;;;;;;;11.13;96.23;99119.50;5030629;28;20096;-69
2024/04/02 02:39:55;;;;;;;6.95;1.58;;;;;;;10.99;95.66;99127.69;5033025;28;20033;-69
2024/04/02 02:42:23;;;;;;;2.20;1.45;;;;;;;11.05;97.72;99123.41;5029809;28;20037;-68
2024/04/02 02:44:50;;;;;;;1.45;1.17;;;;;;;11.08;96.86;99128.00;5028534;28;20025;-69
2024/04/02 02:47:15;;;;;;;4.07;1.35;;;;;;;11.16;95.46;99126.78;5030276;28;20478;-69
2024/04/02 02:49:41;;;;;;;2.88;1.58;;;;;;;11.15;95.94;99120.63;4993512;28;20025;-70
2024/04/02 02:52:07;;;;;;;3.25;1.65;;;;;;;11.27;94.68;99122.09;5028309;28;20033;-69
2024/04/02 02:54:32;;;;;;;4.05;1.55;;;;;;;11.18;95.67;99119.09;5033496;28;20029;-69
2024/04/02 02:56:58;;;;;;;3.25;1.52;;;;;;;11.22;95.93;99139.47;5045624;28;20026;-69
2024/04/02 02:59:23;;;;;;;5.88;1.73;;;;;;;11.33;95.67;99128.59;5027073;28;20043;-69
2024/04/02 03:01:49;;;;;;;6.03;1.60;;;;;;;11.28;95.70;99124.41;5025261;28;20120;-68
2024/04/02 03:04:14;;;;;;;2.85;1.65;;;;;;;11.40;94.58;99131.25;5034756;28;20028;-68
2024/04/02 03:06:40;;;;;;;3.58;1.83;;;;;;;11.34;94.66;99136.28;5031931;28;20491;-68
2024/04/02 03:09:06;;;;;;;2.90;1.80;;;;;;;11.29;94.95;99144.00;5034041;28;20025;-69
2024/04/02 03:11:31;;;;;;;10.98;2.53;;;;;;;11.16;95.31;99145.66;5030993;28;20522;-69
2024/04/02 03:14:00;;;;;;;4.95;1.77;;;;;;;11.27;94.62;99151.72;5042495;28;20038;-69
2024/04/02 03:16:26;;;;;;;4.78;2.28;;;;;;;11.21;95.54;99140.59;5029921;28;20105;-69
2024/04/02 03:18:52;;;;;;;2.50;1.73;;;;;;;11.34;95.78;99135.53;5029757;28;20108;-69
2024/04/02 03:21:17;;;;;;;3.17;2.05;;;;;;;11.37;93.99;99145.50;5028994;28;20061;-68
2024/04/02 03:23:43;;;;;;;5.28;2.28;;;;;;;11.09;95.71;99137.63;5035767;28;20411;-69
2024/04/02 03:26:09;;;;;;;3.83;2.25;;;;;;;11.22;95.06;99152.94;5044312;28;20505;-69
2024/04/02 03:28:34;;;;;;;6.22;2.13;;;;;;;11.17;95.35;99147.22;5030944;28;20038;-69
2024/04/02 03:31:01;;;;;;;2.40;1.42;;;;;;;11.33;95.49;99150.91;5032158;28;20523;-68
2024/04/02 03:33:29;;;;;;;3.70;1.98;;;;;;;11.13;96.05;99165.31;5038556;28;20422;-69
2024/04/02 03:36:03;;;;;;;5.07;2.13;;;;;;;11.02;96.06;99162.69;5029843;28;20025;-68
2024/04/02 03:38:29;;;;;;;6.47;2.03;;;;;;;11.17;96.59;99161.41;5042834;28;20057;-68
2024/04/02 03:41:05;;;;;;;4.32;2.17;;;;;;;11.25;96.69;99160.22;5036400;28;20025;-69
2024/04/02 03:43:31;;;;;;;3.92;2.00;;;;;;;11.13;96.81;99162.63;5033533;28;20082;-69
2024/04/02 03:46:01;;;;;;;4.40;2.20;;;;;;;11.15;96.61;99163.00;5037777;28;20065;-70
2024/04/02 03:48:27;;;;;;;5.55;2.15;;;;;;;11.12;97.16;99169.16;5026621;28;20047;-68
2024/04/02 03:50:53;;;;;;;4.72;2.33;;;;;;;11.09;96.03;99178.78;5032048;28;20025;-69
2024/04/02 03:53:19;;;;;;;4.18;2.05;;;;;;;11.23;96.94;99172.53;5063966;28;20041;-69
2024/04/02 03:55:44;;;;;;;4.53;1.98;;;;;;;11.32;95.74;99168.28;5012641;28;20033;-68
2024/04/02 03:58:10;;;;;;;4.78;2.10;;;;;;;11.38;94.84;99163.97;5014716;28;20051;-69
2024/04/02 04:00:41;;;;;;;3.42;2.15;;;;;;;11.58;94.36;99183.06;5040717;28;20039;-69
2024/04/02 04:03:07;;;;;;;6.35;1.88;;;;;;;11.36;95.64;99177.06;5029506;28;20124;-69
2024/04/02 04:05:34;;;;;;;6.85;1.95;;;;;;;11.32;96.20;99179.06;5040968;28;20059;-69
2024/04/02 04:08:02;;;;;;;7.45;2.35;;;;;;;11.21;96.70;99180.25;5034445;28;20040;-68
2024/04/02 04:10:27;;;;;;;19.10;2.45;;;;;;;11.43;94.80;99184.34;5061408;28;20033;-71
2024/04/02 04:12:53;;;;;;;2.50;1.63;;;;;;;11.28;95.25;99186.38;5035978;28;20035;-69
2024/04/02 04:15:19;;;;;;;6.65;1.70;;;;;;;11.28;95.15;99186.38;5040865;28;20037;-69
2024/04/02 04:17:45;;;;;;;3.40;2.10;;;;;;;11.25;95.88;99187.16;5064425;28;20028;-68
2024/04/02 04:20:12;;;;;;;3.42;2.20;;;;;;;11.25;95.47;99189.84;5027256;28;20120;-69
2024/04/02 04:22:37;;;;;;;3.53;1.90;;;;;;;11.28;95.49;99189.09;5051570;28;20029;-69
2024/04/02 04:25:04;;;;;;;2.90;1.77;;;;;;;11.38;96.09;99192.88;5046837;28;20535;-69
2024/04/02 04:27:36;;;;;;;3.83;2.25;;;;;;;11.51;94.95;99193.91;5042699;28;20477;-68
2024/04/02 04:30:04;;;;;;;4.22;2.05;;;;;;;11.56;93.87;99193.50;5028388;28;20030;-68
2024/04/02 04:32:30;;;;;;;3.10;1.73;;;;;;;11.30;95.36;99191.38;5045881;28;20025;-69
2024/04/02 04:34:55;;;;;;;6.53;2.15;;;;;;;11.27;95.77;99186.75;5028548;28;20022;-69
2024/04/02 04:37:21;;;;;;;3.53;2.08;;;;;;;11.37;95.76;99197.47;5032362;28;20053;-68
2024/04/02 04:39:47;;;;;;;5.40;2.40;;;;;;;11.30;95.77;99186.00;5032670;28;20065;-69
2024/04/02 04:42:13;;;;;;;6.72;2.10;;;;;;;11.28;95.17;99199.88;5029333;28;20021;-68
2024/04/02 04:44:43;;;;;;;3.30;2.08;;;;;;;11.33;95.76;99202.13;5031524;28;20041;-68
2024/04/02 04:47:09;;;;;;;5.82;2.25;;;;;;;11.19;95.95;99202.22;5062386;28;20104;-68
2024/04/02 04:49:35;;;;;;;4.22;2.47;;;;;;;11.19;97.21;99198.78;5026548;28;20398;-69
2024/04/02 04:52:01;;;;;;;6.43;2.15;;;;;;;11.68;94.89;99203.81;5044493;28;20117;-71
2024/04/02 04:54:27;;;;;;;7.75;3.00;;;;;;;11.27;95.01;99203.69;5029364;28;20647;-69
2024/04/02 04:56:53;;;;;;;3.75;2.20;;;;;;;11.47;96.26;99199.34;5012416;28;20094;-68
2024/04/02 04:59:18;;;;;;;4.72;2.47;;;;;;;11.58;95.43;99210.81;5041893;28;20447;-69
2024/04/02 05:01:44;;;;;;;5.63;2.90;;;;;;;11.54;95.04;99218.16;5026668;28;20028;-68
2024/04/02 05:04:09;;;;;;;3.53;2.58;;;;;;;11.25;95.85;99218.72;5031378;28;20040;-68
2024/04/02 05:06:38;;;;;;;5.85;2.80;;;;;;;11.21;95.86;99212.59;5028581;28;20038;-69
2024/04/02 05:09:04;;;;;;;6.68;2.97;;;;;;;11.42;95.96;99215.91;5036253;28;20041;-69
2024/04/02 05:11:30;;;;;;;6.22;2.70;;;;;;;11.18;96.31;99218.78;5030367;28;20029;-69
2024/04/02 05:13:57;;;;;;;5.07;2.63;;;;;;;11.30;95.97;99221.03;5034909;28;20033;-69
2024/04/02 05:16:23;;;;;;;3.38;2.28;;;;;;;11.13;97.05;99228.03;5027438;28;20094;-68
2024/04/02 05:18:49;;;;;;;7.18;2.90;;;;;;;11.39;96.38;99226.72;5030894;28;20487;-68
2024/04/02 05:21:14;;;;;;;10.02;2.92;;;;;;;11.42;95.34;99240.19;5034243;28;20041;-70
2024/04/02 05:23:40;;;;;;;4.13;2.53;;;;;;;11.39;96.65;99235.59;5032399;28;20415;-68
2024/04/02 05:26:08;;;;;;;9.23;3.15;;;;;;;11.49;95.08;99234.75;5036847;28;20406;-68
2024/04/02 05:28:33;;;;;;;5.68;3.03;;;;;;;11.43;95.61;99240.94;5067043;28;20045;-69
2024/04/02 05:30:59;;;;;;;5.22;2.78;;;;;;;11.35;95.34;99234.84;5034661;28;20040;-69
2024/04/02 05:33:25;;;;;;;5.18;2.63;;;;;;;11.23;96.35;99243.38;5050431;28;20201;-69
2024/04/02 05:35:50;;;;;;;10.10;3.58;;;;;;;11.42;96.09;99245.56;5048841;28;20033;-69
2024/04/02 05:38:16;;;;;;;9.02;3.00;;;;;;;11.49;96.13;99248.25;5044617;28;20564;-68
2024/04/02 05:40:42;;;;;;;5.13;2.83;;;;;;;11.48;95.54;99257.47;5034282;28;20398;-71
2024/04/02 05:43:07;;;;;;;7.65;2.65;;;;;;;11.55;95.03;99260.16;5028453;28;20025;-69
2024/04/02 05:45:33;;;;;;;4.22;2.55;;;;;;;11.72;94.66;99266.59;5031667;28;20099;-68
2024/04/02 05:47:58;;;;;;;9.20;2.85;;;;;;;11.81;94.79;99261.50;5048160;28;20113;-68
2024/04/02 05:50:24;;;;;;;5.63;2.95;;;;;;;11.70;95.04;99267.00;5045859;28;20028;-68
2024/04/02 05:52:49;;;;;;;6.25;3.22;;;;;;;11.66;94.58;99268.19;5027233;28;20045;-68
2024/04/02 05:55:16;;;;;;;9.25;3.40;;;;;;;11.62;94.89;99265.47;5045225;28;20064;-67
2024/04/02 05:57:42;;;;;;;6.07;3.28;;;;;;;11.61;95.07;99282.81;5042957;28;20453;-69
2024/04/02 06:00:10;;;;;;;5.40;2.90;;;;;;;11.56;94.40;99272.44;5048071;28;20033;-69
2024/04/02 06:02:41;;;;;;;8.27;3.47;;;;;;;11.35;95.71;99266.41;5035519;28;20033;-69
2024/04/02 06:05:07;;;;;;;4.43;2.60;;;;;;;11.42;96.36;99266.38;5033333;28;20111;-71
2024/04/02 06:07:33;;;;;;;6.72;3.53;;;;;;;11.60;95.48;99277.81;5029260;28;20036;-69
2024/04/02 06:09:59;;;;;;;6.53;2.92;;;;;;;11.47;96.02;99274.03;5035110;28;20033;-69
2024/04/02 06:12:24;;;;;;;6.03;2.95;;;;;;;11.62;94.98;99280.88;5034160;28;20025;-69
2024/04/02 06:14:50;;;;;;;3.45;2.67;;;;;;;11.64;95.43;99278.56;5031539;28;20067;-68
2024/04/02 06:17:15;;;;;;;6.20;3.40;;;;;;;11.62;94.54;99275.50;5034479;28;20367;-68
2024/04/02 06:19:41;;;;;;;3.47;2.75;;;;;;;11.66;93.59;99287.06;5030770;28;20041;-70
2024/04/02 06:22:06;;;;;;;3.97;2.67;;;;;;;11.57;94.71;99290.19;5033129;28;20040;-68
2024/04/02 06:24:32;;;;;;;8.45;3.55;;;;;;;11.23;95.77;99289.19;5019171;28;20033;-68
2024/04/02 06:26:57;;;;;;;8.00;3.47;;;;;;;11.32;96.51;99291.47;5037718;28;20033;-69
2024/04/02 06:29:23;;;;;;;7.30;3.25;;;;;;;11.41;96.26;99287.19;5046082;28;20030;-69
2024/04/02 06:31:48;;;;;;;13.85;3.20;;;;;;;11.65;95.31;99288.19;5036048;28;20113;-68
2024/04/02 06:34:14;;;;;;;12.02;3.45;;;;;;;11.63;94.11;99287.81;5015633;28;20069;-68
2024/04/02 06:36:39;;;;;;;6.68;3.30;;;;;;;11.58;95.57;99290.91;5031303;28;20036;-67
2024/04/02 06:39:05;;;;;;;6.95;3.53;;;;;;;11.36;95.28;99292.22;5037079;28;20068;-68
2024/04/02 06:41:30;;;;;;;7.60;3.17;;;;;;;11.33;96.80;99290.28;5036864;28;20090;-68
2024/04/02 06:43:56;;;;;;;6.75;3.55;;;;;;;11.32;96.59;99286.84;5033270;28;20422;-68
2024/04/02 06:46:24;;;;;;;6.55;3.22;;;;;;;11.36;96.83;99290.25;5033880;28;20466;-68
2024/04/02 06:48:50;;;;;;;11.07;2.72;;;;;;;11.46;95.86;99292.16;5033018;28;20037;-68
2024/04/02 06:51:16;;;;;;;5.70;3.20;;;;;;;11.77;94.50;99303.91;5031706;28;20034;-68
2024/04/02 06:53:42;;;;;;;4.25;2.58;;;;;;;11.77;93.81;99301.22;5031109;28;20171;-69
2024/04/02 06:56:08;;;;;;;7.35;3.30;;;;;;;11.74;93.43;99304.72;5038550;28;20108;-68
2024/04/02 06:58:33;;;;;;;8.77;3.35;;;;;;;11.58;94.31;99301.69;5069304;28;20688;-69
2024/04/02 07:00:59;;;;;;;7.35;3.72;;;;;;;11.61;95.04;99301.69;5037929;28;20029;-68
2024/04/02 07:03:27;;;;;;;6.97;2.67;;;;;;;11.59;94.62;99303.25;5066091;28;20383;-68
2024/04/02 07:05:53;;;;;;;5.78;3.38;;;;;;;11.48;94.86;99316.00;5034156;28;20031;-69
2024/04/02 07:08:25;;;;;;;5.55;2.80;;;;;;;11.79;93.72;99315.09;5046938;28;20125;-68
2024/04/02 07:10:58;;;;;;;7.28;3.78;;;;;;;11.81;93.40;99310.06;5029991;28;20136;-69
2024/04/02 07:13:27;;;;;;;5.88;3.88;;;;;;;11.66;93.88;99319.41;5044818;28;20033;-68
2024/04/02 07:15:53;;;;;;;4.72;2.83;;;;;;;11.71;93.12;99317.06;5028025;28;20163;-69
2024/04/02 07:18:19;;;;;;;8.48;4.28;;;;;;;11.61;94.46;99328.66;5028479;28;20314;-68
2024/04/02 07:20:45;;;;;;;7.60;3.92;;;;;;;11.71;93.49;99322.44;5031018;28;20510;-68
2024/04/02 07:23:11;;;;;;;6.00;3.63;;;;;;;11.70;93.30;99328.25;5048131;28;20033;-69
2024/04/02 07:25:36;;;;;;;8.35;3.20;;;;;;;11.72;92.45;99331.31;5028207;28;20137;-68
2024/04/02 07:28:02;;;;;;;9.60;3.15;;;;;;;11.67;93.23;99334.44;5027436;28;20554;-69
2024/04/02 07:30:28;;;;;;;5.45;3.35;;;;;;;11.70;93.50;99339.81;5036860;28;20025;-69
2024/04/02 07:32:56;;;;;;;6.90;3.42;;;;;;;11.45;93.31;99338.38;5042954;28;20025;-72
2024/04/02 07:35:21;;;;;;;6.65;3.85;;;;;;;11.67;93.46;99342.53;5024981;28;20086;-68
2024/04/02 07:37:47;;;;;;;12.32;4.38;;;;;;;11.83;92.56;99336.66;5033315;28;20083;-68
2024/04/02 07:40:14;;;;;;;7.15;3.55;;;;;;;11.72;91.99;99337.50;5033631;28;20029;-68
2024/04/02 07:42:39;;;;;;;9.93;4.30;;;;;;;11.73;93.10;99340.94;5026338;28;20094;-68
2024/04/02 07:45:05;;;;;;;6.95;4.00;;;;;;;11.72;93.02;99340.19;5030339;28;20045;-68
2024/04/02 07:47:30;;;;;;;7.35;3.55;;;;;;;11.81;92.35;99347.81;5032016;28;20074;-69
2024/04/02 07:49:55;;;;;;;6.53;3.60;;;;;;;11.55;92.47;99348.34;5016245;28;20130;-69
2024/04/02 07:52:21;;;;;;;9.30;3.78;;;;;;;11.79;92.94;99363.63;5024643;28;20037;-69
2024/04/02 07:54:46;;;;;;;9.13;3.90;;;;;;;11.93;92.39;99355.47;5028461;28;20112;-69
2024/04/02 07:57:12;;;;;;;5.72;3.67;;;;;;;11.98;91.26;99352.34;5048369;28;20502;-70
2024/04/02 07:59:37;;;;;;;5.70;2.97;;;;;;;11.87;91.58;99367.81;5044170;28;20613;-69
2024/04/02 08:02:03;;;;;;;8.63;3.03;;;;;;;11.95;90.82;99372.03;5029129;28;20495;-68
2024/04/02 08:04:28;;;;;;;6.07;3.22;;;;;;;11.91;91.93;99371.28;5063570;28;20043;-70
2024/04/02 08:06:54;;;;;;;6.93;3.80;;;;;;;11.82;91.07;99375.56;5031135;28;20034;-68
2024/04/02 08:09:19;;;;;;;8.07;3.58;;;;;;;11.80;91.78;99373.28;5031548;28;20059;-68
2024/04/02 08:11:45;;;;;;;8.02;3.67;;;;;;;11.90;91.96;99385.94;5033123;28;20025;-68
2024/04/02 08:14:10;;;;;;;9.38;4.00;;;;;;;12.07;90.85;99376.97;5047792;28;20057;-68
2024/04/02 08:16:36;;;;;;;8.55;3.92;;;;;;;12.02;90.09;99382.00;5030274;28;20178;-69
2024/04/02 08:19:01;;;;;;;8.32;3.40;;;;;;;11.78;91.21;99389.09;5058891;28;20060;-68
2024/04/02 08:21:27;;;;;;;8.07;3.65;;;;;;;12.19;90.53;99387.28;5028854;28;20025;-68
2024/04/02 08:23:52;;;;;;;7.30;3.67;;;;;;;12.40;89.14;99387.13;5022191;28;20038;-68
2024/04/02 08:26:19;;;;;;;5.65;3.25;;;;;;;12.34;88.77;99402.22;5039789;28;20036;-68
2024/04/02 08:28:47;;;;;;;9.68;3.63;;;;;;;12.47;89.51;99399.78;5030253;28;20083;-68
2024/04/02 08:31:13;;;;;;;4.78;3.25;;;;;;;12.23;89.25;99401.50;5065260;28;20056;-68
2024/04/02 08:33:39;;;;;;;5.78;3.80;;;;;;;12.51;88.77;99406.72;5024306;28;20509;-70
2024/04/02 08:36:04;;;;;;;8.15;3.17;;;;;;;12.22;88.73;99412.72;5034914;28;20521;-68
2024/04/02 08:38:30;;;;;;;7.22;3.97;;;;;;;12.11;89.71;99410.09;5029003;28;20159;-69
2024/04/02 08:41:05;;;;;;;7.00;3.28;;;;;;;12.04;90.32;99414.75;5029492;28;20039;-68
2024/04/02 08:43:31;;;;;;;8.02;3.30;;;;;;;12.15;90.52;99416.25;5030715;28;20029;-68
2024/04/02 08:46:00;;;;;;;5.15;3.40;;;;;;;12.16;90.77;99412.34;5034691;28;20410;-68
2024/04/02 08:48:26;;;;;;;6.28;3.63;;;;;;;12.15;90.92;99412.75;5045622;28;20047;-68
2024/04/02 08:50:53;;;;;;;4.15;2.83;;;;;;;12.47;89.60;99414.06;5046695;28;20033;-69
2024/04/02 08:53:19;;;;;;;8.55;3.80;;;;;;;12.51;89.42;99422.13;5047965;28;20029;-68
2024/04/02 08:55:46;;;;;;;9.98;3.35;;;;;;;12.64;88.99;99429.38;5033763;28;20095;-69
2024/04/02 08:58:12;;;;;;;8.23;3.33;;;;;;;12.62;88.29;99423.59;5033480;28;20041;-69
2024/04/02 09:00:39;;;;;;;5.68;3.05;;;;;;;12.64;88.09;99429.38;5029571;28;20040;-68
2024/04/02 09:03:07;;;;;;;5.53;3.17;;;;;;;13.16;87.13;99434.72;5033490;28;20037;-70
2024/04/02 09:05:32;;;;;;;7.57;3.08;;;;;;;13.67;85.75;99431.81;5012258;28;20045;-68
2024/04/02 09:07:58;;;;;;;6.18;4.28;;;;;;;14.02;82.75;99433.31;5021822;28;20033;-67
2024/04/02 09:10:23;;;;;;;6.85;3.40;;;;;;;14.53;81.30;99415.94;5029175;28;20483;-68
2024/04/02 09:12:49;;;;;;;5.70;2.75;;;;;;;14.87;79.74;99436.28;5041993;28;20029;-69
2024/04/02 09:15:15;;;;;;;8.98;3.92;;;;;;;15.09;77.30;99442.88;5050012;28;20036;-68
2024/04/02 09:17:41;;;;;;;6.65;3.22;;;;;;;15.20;75.56;99437.25;5035240;28;20124;-69
2024/04/02 09:20:07;;;;;;;4.82;3.00;;;;;;;15.13;75.67;99445.53;5030080;28;20057;-68
2024/04/02 09:22:32;;;;;;;6.38;3.25;;;;;;;15.45;75.04;99447.69;5034374;28;20053;-68
2024/04/02 09:24:58;;;;;;;8.73;2.70;;;;;;;15.18;75.45;99458.59;5031121;28;20039;-68
2024/04/02 09:27:24;;;;;;;4.35;2.63;;;;;;;14.73;76.05;99455.47;5047750;28;20033;-68
2024/04/02 09:29:49;;;;;;;7.57;2.25;;;;;;;14.51;76.88;99457.00;5034995;28;20046;-70
2024/04/02 09:32:17;;;;;;;4.07;2.47;;;;;;;14.07;78.95;99457.22;5015210;28;20517;-68
2024/04/02 09:34:45;;;;;;;3.78;2.25;;;;;;;14.00;79.70;99455.38;5030351;28;20025;-68
2024/04/02 09:37:30;;;;;;;4.22;2.08;;;;;;;14.19;80.03;99465.56;5033998;28;20071;-69
2024/04/02 09:39:56;;;;;;;6.43;1.88;;;;;;;13.86;80.39;99468.34;5045045;28;20034;-68
2024/04/02 09:42:23;;;;;;;5.10;2.40;;;;;;;13.88;81.28;99474.84;5048568;28;20040;-68
2024/04/02 09:44:51;;;;;;;7.30;1.83;;;;;;;13.79;81.02;99466.47;5034151;28;20200;-67
2024/04/02 09:47:18;;;;;;;2.97;1.70;;;;;;;13.98;80.77;99460.41;5028263;28;20506;-68
2024/04/02 09:49:44;;;;;;;3.95;1.88;;;;;;;13.99;80.25;99467.38;5038890;28;20040;-67
2024/04/02 09:52:10;;;;;;;2.35;1.67;;;;;;;13.98;79.25;99467.78;5029959;28;20017;-68
2024/04/02 09:54:36;;;;;;;3.05;1.63;;;;;;;14.14;79.86;99471.44;5034594;28;20029;-67
2024/04/02 09:57:05;;;;;;;3.67;2.00;;;;;;;14.00;80.06;99473.53;5034606;28;20045;-68
2024/04/02 09:59:31;;;;;;;2.22;1.48;;;;;;;14.17;79.89;99475.25;5046207;28;20499;-68
2024/04/02 10:01:58;;;;;;;3.88;1.75;;;;;;;14.27;79.51;99483.28;5030607;28;20546;-68
2024/04/02 10:04:24;;;;;;;2.58;2.00;;;;;;;14.34;79.30;99469.63;5032198;28;20026;-68
2024/04/02 10:06:52;;;;;;;3.08;2.03;;;;;;;14.51;79.19;99464.34;5048235;28;20422;-69
2024/04/02 10:09:18;;;;;;;4.28;1.75;;;;;;;14.59;78.43;99479.34;5048976;28;20026;-68
2024/04/02 10:11:49;;;;;;;4.57;1.80;;;;;;;14.89;77.71;99490.06;5032455;28;20041;-68
2024/04/02 10:14:16;;;;;;;3.95;1.65;;;;;;;15.13;76.72;99480.78;5034162;28;20038;-69
2024/04/02 10:16:43;;;;;;;3.30;1.38;;;;;;;15.36;74.22;99483.47;5030072;28;20458;-69
2024/04/02 10:19:16;;;;;;;1.50;1.30;;;;;;;15.25;73.73;99486.34;5050106;28;20041;-69
2024/04/02 10:21:42;;;;;;;1.77;1.17;;;;;;;15.26;73.19;99493.31;5047383;28;20045;-68
2024/04/02 10:24:11;;;;;;;1.40;1.10;;;;;;;15.65;72.91;99489.94;5021629;28;20037;-69
2024/04/02 10:26:40;;;;;;;3.75;1.23;;;;;;;15.66;71.74;99491.44;5018676;28;20491;-69
2024/04/02 10:29:06;;;;;;;2.30;1.15;;;;;;;15.87;70.56;99496.44;5038476;28;20127;-68
2024/04/02 10:31:41;;;;;;;1.55;1.15;;;;;;;15.93;70.70;99486.63;5035735;28;20104;-69
2024/04/02 10:34:11;;;;;;;3.78;1.05;;;;;;;15.80;69.05;99485.75;5043502;28;20045;-68
2024/04/02 10:36:40;;;;;;;2.92;1.20;;;;;;;15.88;69.66;99489.84;5032141;28;20033;-69
2024/04/02 10:39:10;;;;;;;6.60;0.80;;;;;;;16.15;69.49;99497.81;5031951;28;20041;-71
2024/04/02 10:41:37;;;;;;;5.35;1.00;;;;;;;15.96;68.19;99493.97;5064111;28;20116;-69
2024/04/02 10:44:03;;;;;;;3.17;0.77;;;;;;;16.05;68.53;99490.66;5018275;28;20032;-69
2024/04/02 10:46:30;;;;;;;1.85;0.95;;;;;;;16.05;68.95;99493.38;5031312;28;20029;-69
2024/04/02 10:49:02;;;;;;;2.10;1.00;;;;;;;15.91;68.15;99505.28;5016057;28;20467;-68
2024/04/02 10:51:30;;;;;;;1.40;0.90;;;;;;;15.53;68.08;99498.69;5067509;28;20035;-68
2024/04/02 10:53:56;;;;;;;0.77;0.52;;;;;;;15.73;69.68;99509.56;5068247;28;20208;-68
2024/04/02 10:56:24;;;;;;;1.25;0.73;;;;;;;15.61;69.96;99499.31;5038518;28;20029;-69
2024/04/02 10:58:51;;;;;;;0.52;0.52;;;;;;;15.48;70.59;99512.75;5037457;28;20072;-68
2024/04/02 11:01:18;;;;;;;1.98;0.65;;;;;;;15.57;70.74;99515.66;5052550;28;20116;-69
2024/04/02 11:03:44;;;;;;;4.78;1.00;;;;;;;15.56;69.98;99514.16;5031212;28;20034;-68
2024/04/02 11:06:10;;;;;;;1.17;0.70;;;;;;;15.60;70.83;99514.06;5024967;28;20040;-69
2024/04/02 11:08:37;;;;;;;0.70;0.68;;;;;;;15.62;71.87;99520.59;5035922;28;20048;-69
2024/04/02 11:11:05;;;;;;;1.02;0.77;;;;;;;15.48;70.84;99517.41;5033033;28;20033;-68
2024/04/02 11:13:31;;;;;;;2.58;0.98;;;;;;;15.59;70.44;99512.53;5027533;28;20021;-68
2024/04/02 11:15:57;;;;;;;2.67;0.80;;;;;;;15.44;69.15;99509.31;5030917;28;20552;-68
2024/04/02 11:18:26;;;;;;;2.60;0.85;;;;;;;15.50;70.21;99526.66;5045370;28;20040;-68
2024/04/02 11:20:59;;;;;;;1.38;0.60;;;;;;;15.30;70.28;99510.31;5029051;28;20112;-68
2024/04/02 11:26:15;;;;;;;1.42;0.60;;;;;;;15.22;70.84;99524.41;5047550;28;20029;-69
2024/04/02 11:28:41;;;;;;;0.60;0.60;;;;;;;15.30;71.81;99533.94;5031066;28;20045;-68
2024/04/02 11:31:09;;;;;;;2.65;1.00;;;;;;;15.31;72.45;99522.69;5046443;28;20042;-69